createdAt,value
2022-08-01T04:55:36.499Z,8.90
2022-08-01T04:58:04.862Z,11.80
2022-08-01T05:00:34.856Z,7.50
2022-08-01T05:03:02.616Z,7.20
2022-08-01T05:05:31.746Z,6.90
2022-08-01T05:08:00.210Z,8.10
2022-08-01T05:10:28.309Z,8.80
2022-08-01T05:12:55.955Z,10.40
2022-08-01T05:15:23.743Z,10.70
2022-08-01T05:17:51.594Z,8.50
2022-08-01T05:20:19.285Z,11.20
2022-08-01T05:22:46.998Z,7.90
2022-08-01T05:25:14.693Z,8.10
2022-08-01T05:27:50.798Z,9.10
2022-08-01T05:30:19.012Z,10.10
2022-08-01T05:32:46.622Z,19.50
2022-08-01T05:35:14.273Z,8.60
2022-08-01T05:37:41.861Z,8.80
2022-08-01T05:40:10.151Z,8.80
2022-08-01T05:42:37.803Z,7.50
2022-08-01T05:45:06.295Z,8.20
2022-08-01T05:47:33.915Z,9.90
2022-08-01T05:50:01.486Z,8.70
2022-08-01T05:52:29.613Z,9.00
2022-08-01T05:54:57.344Z,8.30
2022-08-01T05:57:24.962Z,10.30
2022-08-01T05:59:52.614Z,9.50
2022-08-01T06:02:20.410Z,8.20
2022-08-01T06:04:48.176Z,8.40
2022-08-01T06:07:15.716Z,10.20
2022-08-01T06:09:43.416Z,9.20
2022-08-01T06:12:11.009Z,7.50
2022-08-01T06:14:38.727Z,8.10
2022-08-01T06:17:06.343Z,7.70
2022-08-01T06:19:33.941Z,8.00
2022-08-01T06:22:01.631Z,8.00
2022-08-01T06:24:29.362Z,7.30
2022-08-01T06:26:57.240Z,8.90
2022-08-01T06:29:25.505Z,9.20
2022-08-01T06:31:53.146Z,7.90
2022-08-01T06:34:24.871Z,9.50
2022-08-01T06:36:52.465Z,8.20
2022-08-01T06:39:20.281Z,7.80
2022-08-01T06:41:48.487Z,9.00
2022-08-01T06:44:16.147Z,8.30
2022-08-01T06:46:44.163Z,7.70
2022-08-01T06:49:12.020Z,8.60
2022-08-01T06:51:39.682Z,7.20
2022-08-01T06:54:07.316Z,9.00
2022-08-01T06:56:36.134Z,7.40
2022-08-01T06:59:03.754Z,7.90
2022-08-01T07:01:34.364Z,8.00
2022-08-01T07:04:04.635Z,10.50
2022-08-01T07:06:32.308Z,7.10
2022-08-01T07:09:07.427Z,7.90
2022-08-01T07:11:38.612Z,7.10
2022-08-01T07:14:06.327Z,9.70
2022-08-01T07:16:33.999Z,7.20
2022-08-01T07:19:01.951Z,6.50
2022-08-01T07:21:40.463Z,6.70
2022-08-01T07:24:14.524Z,6.70
2022-08-01T07:26:52.594Z,6.00
2022-08-01T07:29:25.457Z,7.80
2022-08-01T07:31:57.803Z,7.60
2022-08-01T07:34:26.576Z,6.80
2022-08-01T07:36:54.407Z,8.50
2022-08-01T07:39:22.050Z,7.70
2022-08-01T07:42:06.581Z,5.60
2022-08-01T07:44:36.719Z,8.80
2022-08-01T07:47:05.451Z,5.60
2022-08-01T07:49:39.167Z,5.40
2022-08-01T07:52:09.290Z,6.20
2022-08-01T07:54:37.299Z,7.10
2022-08-01T07:57:05.628Z,8.70
2022-08-01T07:59:33.865Z,13.00
2022-08-01T08:02:02.050Z,7.90
2022-08-01T08:04:30.005Z,7.90
2022-08-01T08:06:57.628Z,6.80
2022-08-01T08:09:25.316Z,5.70
2022-08-01T08:11:52.933Z,6.90
2022-08-01T08:14:20.656Z,7.30
2022-08-01T08:16:48.248Z,5.60
2022-08-01T08:19:15.878Z,12.20
2022-08-01T08:21:43.468Z,6.90
2022-08-01T08:24:27.534Z,11.30
2022-08-01T08:26:58.237Z,6.60
2022-08-01T08:29:27.316Z,4.30
2022-08-01T08:31:58.790Z,4.80
2022-08-01T08:34:28.459Z,5.90
2022-08-01T08:36:58.936Z,7.70
2022-08-01T08:39:27.304Z,8.80
2022-08-01T08:41:55.521Z,3.50
2022-08-01T08:44:23.139Z,4.50
2022-08-01T08:46:52.897Z,5.80
2022-08-01T08:49:23.734Z,4.10
2022-08-01T08:51:53.776Z,3.50
2022-08-01T08:54:30.812Z,3.80
2022-08-01T08:57:00.943Z,4.80
2022-08-01T08:59:29.636Z,4.30
2022-08-01T09:01:58.530Z,3.80
2022-08-01T09:04:27.542Z,3.30
2022-08-01T09:06:55.789Z,6.30
2022-08-01T09:09:24.492Z,5.20
2022-08-01T09:11:56.988Z,5.00
2022-08-01T09:14:30.982Z,4.70
2022-08-01T09:17:04.770Z,3.80
2022-08-01T09:19:39.597Z,2.70
2022-08-01T09:22:12.101Z,3.80
2022-08-01T09:24:43.525Z,4.80
2022-08-01T09:27:24.199Z,3.00
2022-08-01T09:30:01.754Z,4.90
2022-08-01T09:32:35.091Z,5.10
2022-08-01T09:35:43.129Z,4.10
2022-08-01T09:38:17.928Z,3.80
2022-08-01T09:40:50.037Z,3.60
2022-08-01T09:43:19.236Z,3.90
2022-08-01T09:45:49.151Z,4.00
2022-08-01T09:48:19.641Z,3.50
2022-08-01T09:50:54.387Z,3.20
2022-08-01T09:53:29.380Z,4.30
2022-08-01T09:56:10.909Z,6.30
2022-08-01T09:59:00.093Z,2.80
2022-08-01T10:01:43.118Z,3.10
2022-08-01T10:04:28.371Z,3.40
2022-08-01T10:07:06.528Z,3.20
2022-08-01T10:09:40.803Z,3.30
2022-08-01T10:12:15.688Z,4.90
2022-08-01T10:14:50.667Z,3.00
2022-08-01T10:17:20.753Z,3.90
2022-08-01T10:19:51.457Z,3.50
2022-08-01T10:22:20.716Z,3.80
2022-08-01T10:24:48.896Z,2.50
2022-08-01T10:27:24.407Z,4.50
2022-08-01T10:30:14.076Z,6.40
2022-08-01T10:32:51.327Z,4.10
2022-08-01T10:35:46.873Z,2.20
2022-08-01T10:38:10.719Z,3.00
2022-08-01T10:40:43.277Z,2.50
2022-08-01T10:43:12.829Z,2.10
2022-08-01T10:45:43.025Z,2.50
2022-08-01T10:48:20.807Z,4.30
2022-08-01T10:50:53.900Z,2.70
2022-08-01T10:53:31.786Z,3.10
2022-08-01T10:56:12.858Z,6.40
2022-08-01T10:58:45.223Z,4.80
2022-08-01T11:01:16.227Z,3.40
2022-08-01T11:04:05.190Z,4.70
2022-08-01T11:06:35.786Z,2.80
2022-08-01T11:09:22.010Z,3.30
2022-08-01T11:12:08.091Z,4.30
2022-08-01T11:14:59.558Z,2.60
2022-08-01T11:17:49.439Z,3.80
2022-08-01T11:20:19.392Z,3.70
2022-08-01T11:23:04.906Z,2.80
2022-08-01T11:26:03.471Z,3.80
2022-08-01T11:28:30.341Z,3.30
2022-08-01T11:31:02.629Z,3.90
2022-08-01T11:33:47.110Z,4.70
2022-08-01T11:36:16.695Z,4.20
2022-08-01T11:38:48.592Z,2.90
2022-08-01T11:41:18.155Z,2.80
2022-08-01T11:44:05.554Z,4.10
2022-08-01T11:47:08.905Z,3.50
2022-08-01T11:49:38.552Z,3.10
2022-08-01T11:52:09.453Z,3.80
2022-08-01T11:54:40.965Z,4.40
2022-08-01T11:57:33.992Z,4.50
2022-08-01T12:00:11.326Z,5.00
2022-08-01T12:02:46.405Z,3.90
2022-08-01T12:05:18.818Z,2.80
2022-08-01T12:07:51.131Z,2.90
2022-08-01T12:10:33.814Z,2.40
2022-08-01T12:15:34.147Z,4.40
2022-08-01T12:18:07.174Z,3.20
2022-08-01T12:23:06.662Z,5.50
2022-08-01T12:25:35.397Z,2.80
2022-08-01T12:28:06.274Z,2.60
2022-08-01T12:30:36.495Z,4.80
2022-08-01T12:33:06.638Z,4.00
2022-08-01T12:35:35.218Z,5.50
2022-08-01T12:38:15.991Z,5.60
2022-08-01T12:40:46.145Z,5.30
2022-08-01T12:43:28.298Z,7.40
2022-08-01T12:46:01.517Z,3.70
2022-08-01T12:48:31.950Z,3.80
2022-08-01T12:51:01.977Z,3.10
2022-08-01T12:53:40.566Z,4.70
2022-08-01T12:56:13.665Z,4.20
2022-08-01T12:58:41.607Z,4.90
2022-08-01T13:01:11.574Z,5.10
2022-08-01T13:03:40.639Z,5.90
2022-08-01T13:06:13.689Z,3.60
2022-08-01T13:08:41.523Z,3.40
2022-08-01T13:11:18.261Z,4.20
2022-08-01T13:13:48.377Z,3.50
2022-08-01T13:16:30.907Z,4.90
2022-08-01T13:19:07.281Z,2.90
2022-08-01T13:21:54.336Z,4.70
2022-08-01T13:24:30.065Z,2.80
2022-08-01T13:27:03.462Z,2.10
2022-08-01T13:29:41.970Z,3.30
2022-08-01T13:32:28.736Z,4.00
2022-08-01T13:35:06.247Z,4.50
2022-08-01T13:37:34.113Z,2.50
2022-08-01T13:40:01.918Z,2.70
2022-08-01T13:42:30.686Z,4.90
2022-08-01T13:44:58.808Z,4.70
2022-08-01T13:47:31.179Z,2.30
2022-08-01T13:50:03.456Z,4.10
2022-08-01T13:52:31.704Z,3.60
2022-08-01T13:55:00.685Z,3.70
2022-08-01T13:57:36.340Z,3.20
2022-08-01T14:00:09.973Z,2.60
2022-08-01T14:02:41.192Z,4.10
2022-08-01T14:05:09.168Z,3.80
2022-08-01T14:07:38.239Z,2.10
2022-08-01T14:10:19.342Z,3.20
2022-08-01T14:12:49.257Z,4.60
2022-08-01T14:15:36.866Z,2.50
2022-08-01T14:18:07.230Z,2.40
2022-08-01T14:20:35.827Z,3.90
2022-08-01T14:23:03.732Z,5.10
2022-08-01T14:26:05.483Z,4.00
2022-08-01T14:28:21.836Z,2.50
2022-08-01T14:30:49.691Z,2.60
2022-08-01T14:33:17.304Z,4.20
2022-08-01T14:36:05.877Z,3.50
2022-08-01T14:38:34.223Z,3.00
2022-08-01T14:41:04.213Z,4.10
2022-08-01T14:43:33.970Z,6.40
2022-08-01T14:46:04.248Z,4.40
2022-08-01T14:48:32.688Z,3.20
2022-08-01T14:51:03.390Z,3.30
2022-08-01T14:53:34.311Z,2.30
2022-08-01T14:58:35.324Z,3.20
2022-08-01T15:01:03.382Z,3.40
2022-08-01T15:03:32.608Z,3.40
2022-08-01T15:06:00.585Z,3.70
2022-08-01T15:08:28.205Z,3.70
2022-08-01T15:10:55.846Z,4.40
2022-08-01T15:13:23.440Z,3.20
2022-08-01T15:15:51.056Z,1.40
2022-08-01T15:18:18.805Z,2.00
2022-08-01T15:20:46.427Z,4.30
2022-08-01T15:23:14.522Z,3.80
2022-08-01T15:25:42.426Z,2.20
2022-08-01T15:28:10.985Z,4.10
2022-08-01T15:30:39.201Z,2.00
2022-08-01T15:33:07.351Z,2.60
2022-08-01T15:35:35.135Z,6.20
2022-08-01T15:38:03.198Z,4.00
2022-08-01T15:40:35.038Z,3.50
2022-08-01T15:43:03.532Z,4.40
2022-08-01T15:45:48.116Z,2.80
2022-08-01T15:48:19.133Z,6.30
2022-08-01T15:50:48.604Z,3.50
2022-08-01T15:53:16.275Z,2.30
2022-08-01T15:55:43.911Z,3.90
2022-08-01T15:58:20.219Z,2.90
2022-08-01T16:00:48.082Z,3.50
2022-08-01T16:03:15.751Z,4.10
2022-08-01T16:05:44.473Z,3.40
2022-08-01T16:08:13.215Z,4.10
2022-08-01T16:10:41.432Z,2.50
2022-08-01T16:13:09.332Z,1.90
2022-08-01T16:15:38.189Z,3.50
2022-08-01T16:18:08.015Z,2.30
2022-08-01T16:20:35.764Z,2.90
2022-08-01T16:23:03.367Z,4.20
2022-08-01T16:25:31.265Z,3.80
2022-08-01T16:27:58.910Z,5.00
2022-08-01T16:30:26.925Z,2.70
2022-08-01T16:32:59.432Z,4.20
2022-08-01T16:35:36.039Z,5.60
2022-08-01T16:38:05.745Z,3.30
2022-08-01T16:40:34.942Z,2.90
2022-08-01T16:43:16.039Z,2.70
2022-08-01T16:45:44.614Z,5.70
2022-08-01T16:48:15.389Z,4.00
2022-08-01T16:50:43.295Z,3.70
2022-08-01T16:53:10.873Z,3.90
2022-08-01T16:55:50.429Z,3.00
2022-08-01T16:58:27.220Z,5.20
2022-08-01T17:00:57.604Z,4.40
2022-08-01T17:03:51.620Z,2.90
2022-08-01T17:06:22.687Z,4.10
2022-08-01T17:08:50.616Z,3.40
2022-08-01T17:11:18.337Z,3.90
2022-08-01T17:13:46.161Z,3.10
2022-08-01T17:16:13.815Z,4.20
2022-08-01T17:18:41.439Z,7.40
2022-08-01T17:21:09.240Z,4.50
2022-08-01T17:23:37.376Z,5.30
2022-08-01T17:26:05.056Z,5.30
2022-08-01T17:28:32.965Z,4.80
2022-08-01T17:31:00.934Z,7.00
2022-08-01T17:33:44.512Z,4.90
2022-08-01T17:36:17.554Z,4.20
2022-08-01T17:38:45.260Z,6.00
2022-08-01T17:41:13.006Z,4.10
2022-08-01T17:43:40.931Z,3.60
2022-08-01T17:46:08.847Z,4.10
2022-08-01T17:48:36.548Z,4.80
2022-08-01T17:51:04.225Z,4.30
2022-08-01T17:53:32.117Z,4.00
2022-08-01T17:56:02.242Z,4.20
2022-08-01T17:58:49.173Z,7.20
2022-08-01T18:01:18.578Z,3.10
2022-08-01T18:03:46.936Z,3.80
2022-08-01T18:06:19.718Z,4.50
2022-08-01T18:08:55.629Z,7.40
2022-08-01T18:11:27.254Z,4.90
2022-08-01T18:13:59.701Z,4.30
2022-08-01T18:16:28.090Z,4.30
2022-08-01T18:18:56.112Z,6.20
2022-08-01T18:21:24.135Z,6.70
2022-08-01T18:23:52.441Z,5.10
2022-08-01T18:26:21.443Z,5.20
2022-08-01T18:28:49.401Z,4.80
2022-08-01T18:31:19.703Z,6.00
2022-08-01T18:33:47.673Z,7.80
2022-08-01T18:36:28.328Z,5.20
2022-08-01T18:39:10.023Z,9.00
2022-08-01T18:41:39.341Z,7.70
2022-08-01T18:44:08.751Z,4.00
2022-08-01T18:46:38.782Z,4.70
2022-08-01T18:49:10.299Z,7.20
2022-08-01T18:51:44.379Z,4.70
2022-08-01T18:54:14.948Z,5.40
2022-08-01T18:56:44.195Z,8.00
2022-08-01T18:59:13.846Z,5.60
2022-08-01T19:01:41.584Z,7.10
2022-08-01T19:04:09.862Z,4.50
2022-08-01T19:06:38.686Z,5.30
2022-08-01T19:09:08.710Z,6.30
2022-08-01T19:11:37.076Z,5.30
2022-08-01T19:14:05.037Z,5.10
2022-08-01T19:16:32.830Z,5.40
2022-08-01T19:19:05.737Z,5.90
2022-08-01T19:21:35.933Z,6.00
2022-08-01T19:24:23.462Z,6.50
2022-08-01T19:26:58.364Z,5.00
2022-08-01T19:29:35.842Z,6.50
2022-08-01T19:32:07.080Z,6.10
2022-08-01T19:34:43.906Z,5.30
2022-08-01T19:37:11.993Z,8.30
2022-08-01T19:39:44.338Z,6.50
2022-08-01T19:42:13.054Z,5.60
2022-08-01T19:44:42.127Z,5.80
2022-08-01T19:47:10.453Z,6.10
2022-08-01T19:49:38.748Z,6.50
2022-08-01T19:52:07.890Z,6.80
2022-08-01T19:54:37.739Z,6.50
2022-08-01T19:57:07.024Z,7.20
2022-08-01T19:59:36.243Z,7.60
2022-08-01T20:02:05.645Z,6.80
2022-08-01T20:04:35.395Z,6.90
2022-08-01T20:07:03.467Z,6.30
2022-08-01T20:09:31.717Z,6.30
2022-08-01T20:11:59.293Z,8.20
2022-08-01T20:14:27.253Z,7.50
2022-08-01T20:16:55.940Z,6.60
2022-08-01T20:19:25.931Z,10.30
2022-08-01T20:22:02.370Z,8.90
2022-08-01T20:24:53.519Z,11.60
2022-08-01T20:27:25.562Z,10.60
2022-08-01T20:29:56.379Z,9.80
2022-08-01T20:32:30.816Z,14.70
2022-08-01T20:34:59.745Z,13.60
2022-08-01T20:38:05.391Z,11.70
2022-08-01T20:40:16.647Z,10.60
2022-08-01T20:42:48.094Z,10.40
2022-08-01T20:45:18.708Z,11.10
2022-08-01T20:47:47.113Z,9.60
2022-08-01T20:50:54.236Z,10.20
2022-08-01T20:53:22.056Z,12.20
2022-08-01T20:55:59.582Z,10.90
2022-08-01T20:58:45.888Z,10.70
2022-08-01T21:01:22.438Z,13.70
2022-08-01T21:04:12.320Z,10.90
2022-08-01T21:06:49.755Z,12.00
2022-08-01T21:09:22.594Z,10.10
2022-08-01T21:11:58.294Z,12.70
2022-08-01T21:14:40.465Z,14.60
2022-08-01T21:17:17.528Z,14.20
2022-08-01T21:19:47.265Z,13.30
2022-08-01T21:22:27.131Z,13.80
2022-08-01T21:25:03.332Z,14.90
2022-08-01T21:27:34.200Z,13.50
2022-08-01T21:30:05.569Z,11.10
2022-08-01T21:32:35.074Z,11.70
2022-08-01T21:35:05.469Z,12.50
2022-08-01T21:37:45.347Z,13.00
2022-08-01T21:40:21.525Z,11.30
2022-08-01T21:42:51.758Z,12.00
2022-08-01T21:45:24.797Z,12.30
2022-08-01T21:47:53.209Z,9.30
2022-08-01T21:50:22.187Z,10.90
2022-08-01T21:53:13.085Z,10.80
2022-08-01T21:55:51.610Z,9.70
2022-08-01T21:58:35.921Z,12.00
2022-08-01T22:01:19.487Z,10.80
2022-08-01T22:06:18.904Z,10.90
2022-08-01T22:08:52.149Z,11.70
2022-08-01T22:11:30.760Z,11.30
2022-08-01T22:14:01.958Z,12.30
2022-08-01T22:16:31.607Z,12.10
2022-08-01T22:19:02.827Z,11.00
2022-08-01T22:21:30.808Z,10.60
2022-08-01T22:23:59.718Z,13.30
2022-08-01T22:26:29.438Z,20.30
2022-08-01T22:28:59.675Z,13.90
2022-08-01T22:31:28.799Z,16.20
2022-08-01T22:33:56.627Z,13.80
2022-08-01T22:36:24.824Z,12.40
2022-08-01T22:38:52.405Z,11.70
2022-08-01T22:41:25.841Z,9.70
2022-08-01T22:46:46.219Z,14.50
2022-08-01T22:49:45.707Z,9.80
2022-08-01T22:52:24.247Z,11.30
2022-08-01T22:55:00.661Z,11.60
2022-08-01T22:57:31.386Z,10.60
2022-08-01T23:00:05.188Z,10.40
2022-08-01T23:02:36.210Z,10.70
2022-08-01T23:05:07.956Z,9.40
2022-08-01T23:07:45.067Z,11.70
2022-08-01T23:10:13.630Z,10.70
2022-08-01T23:12:42.867Z,9.90
2022-08-01T23:15:11.507Z,9.60
2022-08-01T23:17:42.372Z,10.00
2022-08-01T23:20:10.888Z,11.20
2022-08-01T23:22:41.058Z,10.60
2022-08-01T23:25:11.994Z,10.50
2022-08-01T23:27:55.766Z,11.60
2022-08-01T23:30:33.953Z,11.00
2022-08-01T23:33:02.142Z,12.60
2022-08-01T23:35:30.768Z,10.80
2022-08-01T23:38:02.899Z,12.10
2022-08-01T23:40:34.554Z,10.70
2022-08-01T23:43:03.792Z,10.90
2022-08-01T23:46:02.623Z,11.10
2022-08-01T23:48:19.811Z,13.00
2022-08-01T23:50:47.535Z,12.60
2022-08-01T23:53:15.394Z,11.70
2022-08-01T23:55:44.212Z,10.70
2022-08-01T23:58:12.450Z,11.60
